createdAt,value
2023-02-06T00:02:41.223Z,21.85
2023-02-06T00:07:44.098Z,21.76
2023-02-06T00:12:47.031Z,21.82
2023-02-06T00:17:51.258Z,22.01
2023-02-06T00:22:54.859Z,21.93
2023-02-06T00:27:58.954Z,21.90
2023-02-06T00:33:03.131Z,22.00
2023-02-06T00:38:06.715Z,22.00
2023-02-06T00:43:09.639Z,21.91
2023-02-06T00:48:16.600Z,21.82
2023-02-06T00:53:19.949Z,21.82
2023-02-06T00:58:22.842Z,21.82
2023-02-06T01:03:27.034Z,21.77
2023-02-06T01:08:29.863Z,21.78
2023-02-06T01:13:32.681Z,21.79
2023-02-06T01:18:36.845Z,22.08
2023-02-06T01:23:40.499Z,22.06
2023-02-06T01:28:44.527Z,22.04
2023-02-06T01:33:49.744Z,21.76
2023-02-06T01:38:53.019Z,21.78
2023-02-06T01:44:11.569Z,21.86
2023-02-06T01:49:19.502Z,21.89
2023-02-06T01:54:22.421Z,21.86
2023-02-06T01:59:25.761Z,21.90
2023-02-06T02:04:33.042Z,21.79
2023-02-06T02:09:36.055Z,21.97
2023-02-06T02:14:40.118Z,22.12
2023-02-06T02:20:27.478Z,21.93
2023-02-06T02:25:56.209Z,21.98
2023-02-06T02:31:15.614Z,21.93
2023-02-06T02:36:21.607Z,21.87
2023-02-06T02:41:28.870Z,22.00
2023-02-06T02:46:36.019Z,21.60
2023-02-06T02:51:40.524Z,21.80
2023-02-06T02:56:43.495Z,21.80
2023-02-06T03:01:51.720Z,22.07
2023-02-06T03:07:03.129Z,21.98
2023-02-06T03:12:11.508Z,21.91
2023-02-06T03:17:16.972Z,21.79
2023-02-06T03:22:21.239Z,21.88
2023-02-06T03:27:24.287Z,21.87
2023-02-06T03:32:30.148Z,21.80
2023-02-06T03:37:35.737Z,21.88
2023-02-06T03:42:41.287Z,22.09
2023-02-06T03:47:45.226Z,21.71
2023-02-06T03:52:51.095Z,21.80
2023-02-06T03:57:56.417Z,21.66
2023-02-06T04:02:59.646Z,21.64
2023-02-06T04:08:04.196Z,21.90
2023-02-06T04:13:06.982Z,21.80
2023-02-06T04:18:09.849Z,21.69
2023-02-06T04:23:13.986Z,21.77
2023-02-06T04:28:16.954Z,21.96
2023-02-06T04:33:21.393Z,21.71
2023-02-06T04:38:25.606Z,21.85
2023-02-06T04:43:28.385Z,21.64
2023-02-06T04:48:31.259Z,21.62
2023-02-06T04:53:35.401Z,21.74
2023-02-06T04:58:39.054Z,21.57
2023-02-06T05:03:42.682Z,21.83
2023-02-06T05:08:47.292Z,21.56
2023-02-06T05:13:50.185Z,21.65
2023-02-06T05:18:54.507Z,21.59
2023-02-06T05:23:59.060Z,21.49
2023-02-06T05:29:01.937Z,21.49
2023-02-06T05:34:04.859Z,21.57
2023-02-06T05:39:09.153Z,21.60
2023-02-06T05:44:12.166Z,21.56
2023-02-06T05:49:15.113Z,21.71
2023-02-06T05:54:19.310Z,21.72
2023-02-06T05:59:22.233Z,21.47
2023-02-06T06:04:25.387Z,21.52
2023-02-06T06:09:29.596Z,21.31
2023-02-06T06:14:33.166Z,21.37
2023-02-06T06:19:36.001Z,21.39
2023-02-06T06:24:40.238Z,21.52
2023-02-06T06:29:43.082Z,21.42
2023-02-06T06:34:45.997Z,21.33
2023-02-06T06:39:50.270Z,21.45
2023-02-06T06:44:53.114Z,21.28
2023-02-06T06:49:55.952Z,21.33
2023-02-06T06:55:00.311Z,21.22
2023-02-06T07:00:03.334Z,21.28
2023-02-06T07:05:06.972Z,21.33
2023-02-06T07:10:12.158Z,21.37
2023-02-06T07:15:15.516Z,21.25
2023-02-06T07:20:18.567Z,21.03
2023-02-06T07:25:22.756Z,21.86
2023-02-06T07:30:25.679Z,21.70
2023-02-06T07:35:28.575Z,21.61
2023-02-06T07:46:34.600Z,22.04
2023-02-06T07:51:37.407Z,22.03
2023-02-06T07:56:40.425Z,21.75
2023-02-06T08:01:44.646Z,21.87
2023-02-06T08:06:47.466Z,21.73
2023-02-06T08:11:50.425Z,21.62
2023-02-06T08:16:54.852Z,21.39
2023-02-06T08:21:57.743Z,22.12
2023-02-06T08:27:02.878Z,21.52
2023-02-06T08:36:55.707Z,21.75
2023-02-06T08:46:01.642Z,21.45
2023-02-06T08:51:05.466Z,21.42
2023-02-06T08:56:10.275Z,21.38
2023-02-06T09:01:16.684Z,21.57
2023-02-06T09:06:19.642Z,21.56
2023-02-06T09:11:24.511Z,21.53
2023-02-06T09:16:29.575Z,21.42
2023-02-06T09:21:34.236Z,21.49
2023-02-06T09:26:44.786Z,21.13
2023-02-06T09:31:54.647Z,21.30
2023-02-06T09:38:28.751Z,21.00
2023-02-06T09:47:58.490Z,21.49
2023-02-06T09:53:11.470Z,21.59
2023-02-06T09:58:21.114Z,21.25
2023-02-06T10:03:40.728Z,21.24
2023-02-06T10:08:47.190Z,21.15
2023-02-06T10:13:53.930Z,21.34
2023-02-06T10:19:04.155Z,21.21
2023-02-06T10:24:12.017Z,21.10
2023-02-06T10:29:19.469Z,21.22
2023-02-06T10:34:34.658Z,21.13
2023-02-06T10:39:49.736Z,20.94
2023-02-06T10:45:13.147Z,20.94
2023-02-06T10:50:27.359Z,20.99
2023-02-06T10:55:33.382Z,21.32
2023-02-06T11:00:36.693Z,20.87
2023-02-06T11:05:41.511Z,21.09
2023-02-06T11:10:46.285Z,20.75
2023-02-06T11:15:53.502Z,21.46
2023-02-06T11:20:57.809Z,20.61
2023-02-06T11:26:10.678Z,20.69
2023-02-06T11:31:13.731Z,20.12
2023-02-06T11:36:25.277Z,20.63
2023-02-06T11:41:29.303Z,20.59
2023-02-06T11:46:35.117Z,20.63
2023-02-06T11:51:55.277Z,20.50
2023-02-06T11:57:03.149Z,20.58
2023-02-06T12:02:26.815Z,20.71
2023-02-06T12:07:33.833Z,20.24
2023-02-06T12:12:38.808Z,20.36
2023-02-06T12:17:43.727Z,20.70
2023-02-06T12:22:53.194Z,20.54
2023-02-06T12:27:58.281Z,20.72
2023-02-06T12:33:06.289Z,20.46
2023-02-06T12:38:16.642Z,20.70
2023-02-06T12:43:20.198Z,20.71
2023-02-06T12:48:26.842Z,20.60
2023-02-06T12:53:35.411Z,20.89
2023-02-06T12:58:50.689Z,20.54
2023-02-06T13:03:56.409Z,20.71
2023-02-06T13:09:02.259Z,20.69
2023-02-06T13:14:08.366Z,20.32
2023-02-06T13:19:28.711Z,20.21
2023-02-06T13:24:32.859Z,20.74
2023-02-06T13:29:37.567Z,20.40
2023-02-06T13:34:44.319Z,20.12
2023-02-06T13:39:49.779Z,19.93
2023-02-06T13:44:52.761Z,20.19
2023-02-06T13:50:29.542Z,20.19
2023-02-06T13:55:44.155Z,19.90
2023-02-06T14:00:48.956Z,19.36
2023-02-06T14:05:57.057Z,19.42
2023-02-06T14:11:23.104Z,19.87
2023-02-06T14:16:34.127Z,19.93
2023-02-06T14:21:45.787Z,19.89
2023-02-06T14:26:56.765Z,19.85
2023-02-06T14:32:11.140Z,20.00
2023-02-06T14:37:25.108Z,19.77
2023-02-06T14:42:33.639Z,19.90
2023-02-06T14:47:42.255Z,20.04
2023-02-06T14:52:46.666Z,20.30
2023-02-06T14:57:51.339Z,19.84
2023-02-06T15:03:05.552Z,19.73
2023-02-06T15:08:08.675Z,20.22
2023-02-06T15:13:21.954Z,20.08
2023-02-06T15:18:25.121Z,20.13
2023-02-06T15:23:38.786Z,20.10
2023-02-06T15:28:44.847Z,20.08
2023-02-06T15:41:31.803Z,20.00
2023-02-06T16:02:46.665Z,20.00
2023-02-06T16:07:51.227Z,20.10
2023-02-06T16:12:55.126Z,20.04
2023-02-06T16:18:01.027Z,20.01
2023-02-06T16:23:23.819Z,19.99
2023-02-06T16:28:28.021Z,20.03
2023-02-06T16:33:36.250Z,19.60
2023-02-06T16:38:39.378Z,19.42
2023-02-06T16:43:42.254Z,19.18
2023-02-06T16:48:47.085Z,19.00
2023-02-06T16:53:50.701Z,19.21
2023-02-06T16:58:53.551Z,19.06
2023-02-06T17:03:57.768Z,19.37
2023-02-06T17:09:04.372Z,19.09
2023-02-06T17:14:07.437Z,19.22
2023-02-06T17:19:14.905Z,19.38
2023-02-06T17:24:17.804Z,18.96
2023-02-06T17:29:20.833Z,19.35
2023-02-06T17:34:25.556Z,19.19
2023-02-06T17:39:28.562Z,19.32
2023-02-06T17:44:31.436Z,19.31
2023-02-06T17:49:35.595Z,19.08
2023-02-06T17:54:38.521Z,19.23
2023-02-06T17:59:41.416Z,19.35
2023-02-06T18:04:48.584Z,19.11
2023-02-06T18:09:51.378Z,19.21
2023-02-06T18:14:54.286Z,19.23
2023-02-06T18:19:58.528Z,19.07
2023-02-06T18:25:03.260Z,19.08
2023-02-06T18:30:06.901Z,18.95
2023-02-06T18:35:11.843Z,18.75
2023-02-06T18:40:14.720Z,18.80
2023-02-06T18:45:18.850Z,18.98
2023-02-06T18:50:23.325Z,19.20
2023-02-06T18:55:26.492Z,19.17
2023-02-06T19:00:30.362Z,18.93
2023-02-06T19:05:37.404Z,18.75
2023-02-06T19:10:40.590Z,18.94
2023-02-06T19:15:43.485Z,18.88
2023-02-06T19:20:47.644Z,18.94
2023-02-06T19:25:50.537Z,18.79
2023-02-06T19:30:53.448Z,18.93
2023-02-06T19:35:57.900Z,18.63
2023-02-06T19:41:06.303Z,18.87
2023-02-06T19:46:11.991Z,18.76
2023-02-06T19:51:17.641Z,18.73
2023-02-06T19:56:22.165Z,18.71
2023-02-06T20:01:25.640Z,18.77
2023-02-06T20:06:34.742Z,18.82
2023-02-06T20:11:38.020Z,18.77
2023-02-06T20:16:42.311Z,18.66
2023-02-06T20:21:48.525Z,18.71
2023-02-06T20:26:56.212Z,18.66
2023-02-06T20:32:00.173Z,18.76
2023-02-06T20:37:04.674Z,18.77
2023-02-06T20:42:08.229Z,18.76
2023-02-06T20:47:11.486Z,18.61
2023-02-06T20:52:15.678Z,18.52
2023-02-06T20:57:18.490Z,18.58
2023-02-06T21:02:21.574Z,18.80
2023-02-06T21:07:25.994Z,18.53
2023-02-06T21:12:28.843Z,18.34
2023-02-06T21:17:32.114Z,18.41
2023-02-06T21:22:36.331Z,18.56
2023-02-06T21:27:39.175Z,18.54
2023-02-06T21:32:42.030Z,18.35
2023-02-06T21:37:46.256Z,18.48
2023-02-06T21:42:49.308Z,18.35
2023-02-06T21:47:52.113Z,18.54
2023-02-06T21:52:56.253Z,18.60
2023-02-06T21:57:59.264Z,18.53
2023-02-06T22:03:02.231Z,18.47
2023-02-06T22:08:07.619Z,18.37
2023-02-06T22:13:10.467Z,18.50
2023-02-06T22:18:13.267Z,18.57
2023-02-06T22:23:17.449Z,18.38
2023-02-06T22:28:20.412Z,18.52
2023-02-06T22:33:23.275Z,18.49
2023-02-06T22:38:27.690Z,18.54
2023-02-06T22:43:31.046Z,18.28
2023-02-06T22:48:34.242Z,18.29
2023-02-06T22:53:39.489Z,18.43
2023-02-06T22:58:42.590Z,18.48
2023-02-06T23:03:45.762Z,18.25
2023-02-06T23:08:51.685Z,18.29
2023-02-06T23:13:55.959Z,18.24
2023-02-06T23:18:59.701Z,18.32
2023-02-06T23:24:05.189Z,18.32
2023-02-06T23:29:09.491Z,18.00
2023-02-06T23:34:12.694Z,18.21
2023-02-06T23:39:17.005Z,18.26
2023-02-06T23:44:20.105Z,18.06
2023-02-06T23:49:22.904Z,18.15
2023-02-06T23:54:27.082Z,18.08
2023-02-06T23:59:29.960Z,18.35
